Time;durP1;ratioP1;P1;durP2;ratioP2;P2;SDS_P1;SDS_P2;PMS_P1;PMS_P2;Temp;Humidity;BMP_temperature;BMP_pressure;BME280_temperature;BME280_humidity;BME280_pressure;Samples;Min_cycle;Max_cycle;Signal;HPM_P1;HPM_P2
2023/09/06 00:01:29;;;;;;;4.97;3.00;;;;;;;;;;5039734;28;20287;-46
2023/09/06 00:03:55;;;;;;;4.43;2.60;;;;;;;;;;5040658;28;20330;-46
2023/09/06 00:06:21;;;;;;;4.85;2.88;;;;;;;;;;5041251;28;20037;-46
2023/09/06 00:08:46;;;;;;;4.95;2.80;;;;;;;;;;5040077;28;20116;-46
2023/09/06 00:11:12;;;;;;;5.97;2.70;;;;;;;;;;5040319;28;20119;-45
2023/09/06 00:17:43;;;;;;;5.20;2.60;;;;;;;;;;5062175;27;1429734;-46
2023/09/06 00:20:20;;;;;;;7.38;3.38;;;;;;;;;;5092809;28;20493;-46
2023/09/06 00:22:45;;;;;;;5.03;3.22;;;;;;;;;;5092479;28;20024;-46
2023/09/06 00:25:11;;;;;;;4.18;2.60;;;;;;;;;;5095055;28;20032;-46
2023/09/06 00:27:36;;;;;;;7.13;2.90;;;;;;;;;;5086156;28;20111;-46
2023/09/06 00:30:01;;;;;;;5.03;3.00;;;;;;;;;;5084243;28;21273;-46
2023/09/06 00:32:27;;;;;;;6.33;2.97;;;;;;;;;;5083083;28;20032;-46
2023/09/06 00:34:52;;;;;;;5.15;2.88;;;;;;;;;;5084288;28;20278;-47
2023/09/06 00:37:18;;;;;;;6.87;2.87;;;;;;;;;;5082592;28;20073;-46
2023/09/06 00:39:44;;;;;;;8.57;3.00;;;;;;;;;;5088852;28;20023;-47
2023/09/06 00:42:09;;;;;;;5.05;2.85;;;;;;;;;;5089172;28;20059;-46
2023/09/06 00:44:35;;;;;;;5.68;3.03;;;;;;;;;;5088008;28;20024;-46
2023/09/06 00:47:00;;;;;;;55.70;11.43;;;;;;;;;;5086149;28;20120;-46
2023/09/06 00:49:25;;;;;;;6.37;2.83;;;;;;;;;;5082168;28;20036;-46
2023/09/06 00:51:51;;;;;;;6.38;2.00;;;;;;;;;;5085576;28;20103;-46
2023/09/06 00:54:16;;;;;;;6.30;3.07;;;;;;;;;;5088634;28;20035;-46
2023/09/06 00:56:41;;;;;;;6.23;3.67;;;;;;;;;;5083298;28;20290;-46
2023/09/06 00:59:10;;;;;;;5.00;3.10;;;;;;;;;;5082547;28;20321;-46
2023/09/06 01:01:35;;;;;;;6.50;3.10;;;;;;;;;;5081728;28;20285;-46
2023/09/06 01:04:01;;;;;;;7.23;3.10;;;;;;;;;;5087678;28;20038;-46
2023/09/06 01:06:28;;;;;;;6.53;2.92;;;;;;;;;;5092257;28;21135;-46
2023/09/06 01:09:02;;;;;;;6.38;3.25;;;;;;;;;;5091181;28;20036;-46
2023/09/06 01:11:28;;;;;;;6.07;4.05;;;;;;;;;;5091557;28;20043;-46
2023/09/06 01:13:54;;;;;;;6.80;3.30;;;;;;;;;;5085810;28;20127;-46
2023/09/06 01:16:29;;;;;;;6.95;3.10;;;;;;;;;;5091974;28;20284;-46
2023/09/06 01:18:54;;;;;;;3.17;2.22;;;;;;;;;;5087580;28;20024;-46
2023/09/06 01:21:23;;;;;;;5.40;3.25;;;;;;;;;;5085277;28;20077;-46
2023/09/06 01:23:51;;;;;;;6.70;3.28;;;;;;;;;;5087724;28;20020;-46
2023/09/06 01:26:16;;;;;;;4.95;3.20;;;;;;;;;;5087485;28;20478;-46
2023/09/06 01:28:41;;;;;;;5.47;3.13;;;;;;;;;;5073140;28;20081;-46
2023/09/06 01:31:06;;;;;;;5.40;3.15;;;;;;;;;;5072267;28;20048;-46
2023/09/06 01:33:32;;;;;;;5.20;3.20;;;;;;;;;;5074350;28;20096;-46
2023/09/06 01:35:57;;;;;;;4.20;1.83;;;;;;;;;;5066700;28;20290;-46
2023/09/06 01:38:22;;;;;;;5.40;3.10;;;;;;;;;;5068726;28;20016;-46
2023/09/06 01:40:48;;;;;;;5.93;3.22;;;;;;;;;;5072728;28;20056;-46
2023/09/06 01:43:13;;;;;;;5.13;2.83;;;;;;;;;;5074022;28;20021;-46
2023/09/06 01:45:43;;;;;;;6.68;2.90;;;;;;;;;;5071688;28;21174;-46
2023/09/06 01:48:08;;;;;;;4.82;2.83;;;;;;;;;;5070006;28;20043;-46
2023/09/06 01:50:33;;;;;;;6.88;2.78;;;;;;;;;;5071633;28;20486;-46
2023/09/06 01:52:59;;;;;;;4.60;2.73;;;;;;;;;;5072097;28;20494;-46
2023/09/06 01:55:24;;;;;;;5.40;3.22;;;;;;;;;;5073086;28;20282;-46
2023/09/06 01:57:49;;;;;;;6.07;2.97;;;;;;;;;;5070359;28;20059;-46
2023/09/06 02:00:26;;;;;;;6.27;3.40;;;;;;;;;;5070955;28;20031;-46
2023/09/06 02:02:51;;;;;;;7.65;3.58;;;;;;;;;;5075315;28;20025;-45
2023/09/06 02:05:17;;;;;;;7.87;3.23;;;;;;;;;;5066129;28;20029;-45
2023/09/06 02:07:43;;;;;;;4.47;2.70;;;;;;;;;;5069140;28;20305;-46
2023/09/06 02:10:08;;;;;;;7.10;3.10;;;;;;;;;;5070445;28;20305;-46
2023/09/06 02:12:34;;;;;;;8.05;3.30;;;;;;;;;;5067705;28;20024;-46
2023/09/06 02:14:59;;;;;;;8.82;3.13;;;;;;;;;;5070022;28;20108;-46
2023/09/06 02:17:24;;;;;;;7.13;3.23;;;;;;;;;;5071213;28;20040;-45
2023/09/06 02:19:50;;;;;;;4.33;2.80;;;;;;;;;;5073032;28;20175;-45
2023/09/06 02:22:15;;;;;;;6.47;3.05;;;;;;;;;;5069012;28;20063;-45
2023/09/06 02:24:40;;;;;;;5.35;2.63;;;;;;;;;;5063382;28;20482;-45
2023/09/06 02:27:05;;;;;;;6.33;3.00;;;;;;;;;;5069826;28;20146;-45
2023/09/06 02:29:31;;;;;;;6.77;2.90;;;;;;;;;;5072404;28;20032;-45
2023/09/06 02:31:56;;;;;;;7.63;3.08;;;;;;;;;;5071165;28;20393;-45
2023/09/06 02:34:22;;;;;;;6.47;3.40;;;;;;;;;;5073906;28;20052;-46
2023/09/06 02:36:47;;;;;;;99.57;59.00;;;;;;;;;;5069171;28;20999;-45
2023/09/06 02:39:13;;;;;;;103.10;54.00;;;;;;;;;;5073538;28;20328;-45
2023/09/06 02:41:38;;;;;;;25.83;14.30;;;;;;;;;;5066677;28;20488;-45
2023/09/06 02:44:03;;;;;;;9.88;5.20;;;;;;;;;;5069432;28;20023;-46
2023/09/06 02:46:29;;;;;;;7.60;3.85;;;;;;;;;;5071663;28;20202;-45
2023/09/06 02:48:58;;;;;;;10.07;3.00;;;;;;;;;;5073762;28;20103;-45
2023/09/06 02:51:29;;;;;;;6.38;2.95;;;;;;;;;;5074736;28;20028;-46
2023/09/06 02:53:56;;;;;;;9.30;3.63;;;;;;;;;;5069722;28;20056;-46
2023/09/06 02:56:22;;;;;;;6.20;3.30;;;;;;;;;;5071305;28;20412;-46
2023/09/06 02:58:48;;;;;;;5.40;3.08;;;;;;;;;;5067063;28;20070;-45
2023/09/06 03:01:19;;;;;;;7.88;4.10;;;;;;;;;;5069900;28;20024;-45
2023/09/06 03:03:47;;;;;;;42.53;8.93;;;;;;;;;;5068542;28;20115;-45
2023/09/06 03:06:17;;;;;;;4.45;2.70;;;;;;;;;;5075865;28;20038;-46
2023/09/06 03:08:44;;;;;;;6.82;3.13;;;;;;;;;;5069039;28;20607;-45
2023/09/06 03:11:11;;;;;;;4.40;2.53;;;;;;;;;;5073232;28;20834;-45
2023/09/06 03:13:37;;;;;;;4.18;2.72;;;;;;;;;;5070312;28;20028;-46
2023/09/06 03:16:04;;;;;;;5.47;3.17;;;;;;;;;;5072419;28;20077;-45
2023/09/06 03:18:30;;;;;;;70.43;15.52;;;;;;;;;;5065691;28;20036;-45
2023/09/06 03:20:55;;;;;;;8.52;3.13;;;;;;;;;;5072792;28;20028;-45
2023/09/06 03:23:21;;;;;;;6.20;2.88;;;;;;;;;;5073287;28;20027;-46
2023/09/06 03:25:51;;;;;;;4.22;2.65;;;;;;;;;;5072380;28;20020;-45
2023/09/06 03:28:20;;;;;;;5.85;3.38;;;;;;;;;;5064713;28;20024;-45
2023/09/06 03:30:46;;;;;;;5.75;3.42;;;;;;;;;;5063416;28;20032;-45
2023/09/06 03:33:11;;;;;;;7.43;3.22;;;;;;;;;;5069700;28;20126;-45
2023/09/06 03:35:36;;;;;;;58.73;14.77;;;;;;;;;;5066438;28;20028;-45
2023/09/06 03:38:02;;;;;;;7.60;3.55;;;;;;;;;;5071408;28;20016;-45
2023/09/06 03:40:37;;;;;;;5.65;3.13;;;;;;;;;;5068840;28;20021;-45
2023/09/06 03:43:30;;;;;;;4.95;2.97;;;;;;;;;;5063212;28;20066;-46
2023/09/06 03:45:53;;;;;;;4.85;3.38;;;;;;;;;;5071157;28;20051;-45
2023/09/06 03:48:20;;;;;;;8.63;3.40;;;;;;;;;;5068908;28;20038;-45
2023/09/06 03:50:48;;;;;;;6.57;3.33;;;;;;;;;;5067600;28;20024;-45
2023/09/06 03:53:15;;;;;;;8.98;3.47;;;;;;;;;;5068541;28;20028;-45
2023/09/06 03:55:41;;;;;;;6.38;3.20;;;;;;;;;;5073301;28;20414;-45
2023/09/06 03:58:07;;;;;;;8.02;3.47;;;;;;;;;;5068640;28;20023;-45
2023/09/06 04:00:32;;;;;;;5.88;3.42;;;;;;;;;;5069921;28;20032;-45
2023/09/06 04:02:58;;;;;;;5.90;3.30;;;;;;;;;;5070085;28;20107;-46
2023/09/06 04:05:25;;;;;;;5.93;3.08;;;;;;;;;;5071463;28;20707;-46
2023/09/06 04:07:57;;;;;;;6.88;3.03;;;;;;;;;;5062932;28;20154;-46
2023/09/06 04:10:27;;;;;;;6.75;3.42;;;;;;;;;;5067774;28;20024;-46
2023/09/06 04:12:55;;;;;;;9.38;4.22;;;;;;;;;;5065729;28;20023;-45
2023/09/06 04:15:23;;;;;;;11.10;3.35;;;;;;;;;;5065570;28;20093;-45
2023/09/06 04:17:58;;;;;;;8.30;3.55;;;;;;;;;;5066698;28;20028;-46
2023/09/06 04:20:27;;;;;;;7.60;3.42;;;;;;;;;;5067824;28;20386;-45
2023/09/06 04:22:54;;;;;;;6.60;3.67;;;;;;;;;;5069589;28;20012;-46
2023/09/06 04:25:22;;;;;;;6.20;3.60;;;;;;;;;;5071461;28;20539;-45
2023/09/06 04:27:48;;;;;;;69.10;16.08;;;;;;;;;;5068745;28;20017;-45
2023/09/06 04:30:17;;;;;;;5.88;3.88;;;;;;;;;;5063831;28;20453;-45
2023/09/06 04:32:44;;;;;;;6.43;3.63;;;;;;;;;;5052090;28;20017;-45
2023/09/06 04:35:09;;;;;;;12.88;4.18;;;;;;;;;;5069934;28;20024;-46
2023/09/06 04:37:36;;;;;;;6.95;3.67;;;;;;;;;;5072697;28;20032;-45
2023/09/06 04:40:01;;;;;;;4.55;3.00;;;;;;;;;;5067295;28;20039;-46
2023/09/06 04:42:26;;;;;;;5.73;3.37;;;;;;;;;;5073983;28;20031;-46
2023/09/06 04:44:51;;;;;;;5.43;3.77;;;;;;;;;;5073565;28;20278;-45
2023/09/06 04:47:17;;;;;;;4.83;3.13;;;;;;;;;;5072108;28;20020;-46
2023/09/06 04:49:45;;;;;;;6.00;3.40;;;;;;;;;;5061356;28;20020;-45
2023/09/06 04:52:10;;;;;;;5.00;3.25;;;;;;;;;;5067415;28;20504;-45
2023/09/06 04:54:36;;;;;;;5.20;3.22;;;;;;;;;;5064755;28;20477;-45
2023/09/06 04:57:01;;;;;;;4.70;3.07;;;;;;;;;;5067706;28;20029;-45
2023/09/06 04:59:27;;;;;;;4.65;3.05;;;;;;;;;;5073387;28;20023;-46
2023/09/06 05:01:52;;;;;;;2.93;2.33;;;;;;;;;;5064096;28;20020;-45
2023/09/06 05:04:19;;;;;;;6.10;2.90;;;;;;;;;;5074389;28;20262;-46
2023/09/06 05:06:44;;;;;;;4.68;2.35;;;;;;;;;;5077041;28;20052;-45
2023/09/06 05:09:10;;;;;;;3.80;2.17;;;;;;;;;;5068252;28;20475;-45
2023/09/06 05:11:35;;;;;;;3.58;2.50;;;;;;;;;;5073543;28;20033;-45
2023/09/06 05:14:01;;;;;;;3.33;2.05;;;;;;;;;;5074790;28;20470;-45
2023/09/06 05:16:26;;;;;;;4.97;2.70;;;;;;;;;;5074800;28;20111;-45
2023/09/06 05:18:52;;;;;;;3.85;2.72;;;;;;;;;;5073476;28;20062;-45
2023/09/06 05:21:18;;;;;;;9.25;5.85;;;;;;;;;;5075699;28;20416;-45
2023/09/06 05:23:43;;;;;;;7.67;4.40;;;;;;;;;;5076117;28;20475;-46
2023/09/06 05:26:10;;;;;;;10.38;5.03;;;;;;;;;;5071915;28;20277;-45
2023/09/06 05:28:35;;;;;;;6.40;4.20;;;;;;;;;;5070104;28;20496;-45
2023/09/06 05:31:01;;;;;;;7.30;3.47;;;;;;;;;;5071538;28;20024;-45
2023/09/06 05:33:26;;;;;;;8.60;4.15;;;;;;;;;;5073481;28;20032;-45
2023/09/06 05:35:54;;;;;;;6.90;3.47;;;;;;;;;;5069221;28;20035;-46
2023/09/06 05:38:19;;;;;;;19.50;5.63;;;;;;;;;;5067054;28;20028;-46
2023/09/06 05:40:45;;;;;;;4.40;2.88;;;;;;;;;;5070215;28;20363;-45
2023/09/06 05:43:10;;;;;;;3.00;2.40;;;;;;;;;;5073486;28;20023;-45
2023/09/06 05:45:35;;;;;;;279.15;69.75;;;;;;;;;;5074888;28;20062;-45
2023/09/06 05:48:01;;;;;;;316.83;73.07;;;;;;;;;;5072205;28;20609;-45
2023/09/06 05:50:29;;;;;;;15.07;8.17;;;;;;;;;;5074879;28;20031;-46
2023/09/06 05:52:54;;;;;;;24.70;15.38;;;;;;;;;;5064104;28;20279;-45
2023/09/06 05:55:19;;;;;;;11.63;7.60;;;;;;;;;;5071225;28;20096;-45
2023/09/06 05:57:45;;;;;;;8.83;4.30;;;;;;;;;;5073063;28;20285;-45
2023/09/06 06:00:15;;;;;;;449.23;133.40;;;;;;;;;;5074989;28;20324;-46
2023/09/06 06:02:41;;;;;;;6.05;2.95;;;;;;;;;;5071192;28;20029;-45
2023/09/06 06:05:07;;;;;;;6.75;3.50;;;;;;;;;;5064852;28;20551;-45
2023/09/06 06:07:32;;;;;;;5.55;2.90;;;;;;;;;;5067516;28;20029;-46
2023/09/06 06:09:57;;;;;;;5.70;2.60;;;;;;;;;;5070689;28;20024;-46
2023/09/06 06:12:24;;;;;;;5.35;2.85;;;;;;;;;;5073959;28;20784;-46
2023/09/06 06:14:51;;;;;;;5.95;3.13;;;;;;;;;;5068491;28;20028;-45
2023/09/06 06:17:17;;;;;;;8.32;4.03;;;;;;;;;;5069219;28;20033;-45
2023/09/06 06:19:42;;;;;;;6.63;4.13;;;;;;;;;;5073190;28;20021;-46
2023/09/06 06:22:09;;;;;;;7.53;4.77;;;;;;;;;;5070554;28;20012;-45
2023/09/06 06:24:34;;;;;;;8.50;4.13;;;;;;;;;;5068965;28;20830;-45
2023/09/06 06:27:00;;;;;;;6.55;3.67;;;;;;;;;;5071265;28;20165;-45
2023/09/06 06:29:25;;;;;;;9.83;5.93;;;;;;;;;;5069326;28;20134;-46
2023/09/06 06:31:51;;;;;;;10.35;6.75;;;;;;;;;;5068813;28;20287;-45
2023/09/06 06:34:18;;;;;;;10.55;6.53;;;;;;;;;;5072307;28;20418;-46
2023/09/06 06:36:44;;;;;;;34.08;20.25;;;;;;;;;;5069768;28;20039;-46
2023/09/06 06:39:10;;;;;;;51.08;27.60;;;;;;;;;;5070352;28;20020;-45
2023/09/06 06:41:36;;;;;;;16.23;10.60;;;;;;;;;;5076056;28;20020;-46
2023/09/06 06:44:01;;;;;;;10.45;5.57;;;;;;;;;;5070419;28;20024;-45
2023/09/06 06:46:33;;;;;;;10.52;5.82;;;;;;;;;;5069472;28;20020;-45
2023/09/06 06:48:59;;;;;;;1471.53;610.25;;;;;;;;;;5070477;28;20027;-45
2023/09/06 06:51:25;;;;;;;8.50;0.65;;;;;;;;;;5070082;28;20431;-45
2023/09/06 06:53:50;;;;;;;11.90;2.85;;;;;;;;;;5059872;28;20436;-45
2023/09/06 06:56:21;;;;;;;9.10;0.97;;;;;;;;;;5068344;28;20033;-46
2023/09/06 06:58:46;;;;;;;1999.90;999.90;;;;;;;;;;5071333;28;20324;-46
2023/09/06 07:01:11;;;;;;;8.52;0.57;;;;;;;;;;5069975;28;20028;-45
2023/09/06 07:03:37;;;;;;;9.13;0.88;;;;;;;;;;5075126;28;20111;-45
2023/09/06 07:06:02;;;;;;;8.53;0.63;;;;;;;;;;5068616;28;20076;-46
2023/09/06 07:08:29;;;;;;;5.38;0.57;;;;;;;;;;5069983;28;20312;-46
2023/09/06 07:10:54;;;;;;;0.05;0.03;;;;;;;;;;5070863;28;20016;-46
2023/09/06 07:13:19;;;;;;;9.87;5.53;;;;;;;;;;5076150;28;20141;-46
2023/09/06 07:15:44;;;;;;;8.77;4.60;;;;;;;;;;5077174;28;20302;-45
2023/09/06 07:18:12;;;;;;;7.13;4.67;;;;;;;;;;5065426;28;20024;-45
2023/09/06 07:20:37;;;;;;;11.52;4.97;;;;;;;;;;5063716;28;20024;-45
2023/09/06 07:23:03;;;;;;;10.63;4.72;;;;;;;;;;5071029;28;20360;-45
2023/09/06 07:25:29;;;;;;;7.95;4.82;;;;;;;;;;5059411;28;20119;-45
2023/09/06 07:27:54;;;;;;;10.05;5.45;;;;;;;;;;5067816;28;20032;-46
2023/09/06 07:30:19;;;;;;;9.70;6.13;;;;;;;;;;5072917;28;20394;-46
2023/09/06 07:32:44;;;;;;;7.25;5.20;;;;;;;;;;5065853;28;20025;-45
2023/09/06 07:35:10;;;;;;;11.57;5.43;;;;;;;;;;5067724;28;20028;-45
2023/09/06 07:37:35;;;;;;;17.43;10.70;;;;;;;;;;5071599;28;20285;-45
2023/09/06 07:40:00;;;;;;;16.63;10.50;;;;;;;;;;5062720;28;20299;-45
2023/09/06 07:42:26;;;;;;;11.20;6.75;;;;;;;;;;5068599;28;20705;-45
2023/09/06 07:44:51;;;;;;;10.02;6.22;;;;;;;;;;5060317;28;20024;-45
2023/09/06 07:47:17;;;;;;;8.05;5.53;;;;;;;;;;5067185;28;20553;-45
2023/09/06 07:49:42;;;;;;;11.23;6.40;;;;;;;;;;5074437;28;20039;-46
2023/09/06 07:52:08;;;;;;;9.27;6.10;;;;;;;;;;5075862;28;20034;-45
2023/09/06 07:54:33;;;;;;;11.98;6.43;;;;;;;;;;5068010;28;20114;-46
2023/09/06 07:56:59;;;;;;;1999.90;944.03;;;;;;;;;;5063597;28;20107;-46
2023/09/06 07:59:24;;;;;;;11.18;6.15;;;;;;;;;;5068017;28;20085;-46
2023/09/06 08:01:50;;;;;;;12.37;6.00;;;;;;;;;;5064439;28;20074;-45
2023/09/06 08:04:18;;;;;;;10.50;5.75;;;;;;;;;;5071731;28;20498;-45
2023/09/06 08:06:43;;;;;;;7.75;5.68;;;;;;;;;;5073399;28;20032;-45
2023/09/06 08:09:10;;;;;;;8.88;4.88;;;;;;;;;;5075025;28;20035;-45
2023/09/06 08:11:36;;;;;;;899.55;384.77;;;;;;;;;;5076050;28;20036;-46
2023/09/06 08:14:01;;;;;;;366.50;69.93;;;;;;;;;;5069898;28;20028;-46
2023/09/06 08:16:27;;;;;;;1055.32;432.27;;;;;;;;;;5070860;28;20024;-45
2023/09/06 08:18:53;;;;;;;11.52;1.90;;;;;;;;;;5066658;28;20033;-46
2023/09/06 08:21:19;;;;;;;1999.90;983.05;;;;;;;;;;5074991;28;20709;-46
2023/09/06 08:23:44;;;;;;;8.98;5.50;;;;;;;;;;5069371;28;20025;-46
2023/09/06 08:26:09;;;;;;;8.45;5.63;;;;;;;;;;5064215;28;20020;-45
2023/09/06 08:28:35;;;;;;;9.20;6.00;;;;;;;;;;5068460;28;20449;-45
2023/09/06 08:31:01;;;;;;;10.65;5.85;;;;;;;;;;5069799;28;20043;-46
2023/09/06 08:33:26;;;;;;;9.77;6.07;;;;;;;;;;5071849;28;20518;-46
2023/09/06 08:35:52;;;;;;;9.90;5.85;;;;;;;;;;5063109;28;20032;-46
2023/09/06 08:38:17;;;;;;;9.37;5.10;;;;;;;;;;5073693;28;20629;-46
2023/09/06 08:40:42;;;;;;;9.53;5.20;;;;;;;;;;5075799;28;20266;-46
2023/09/06 08:43:09;;;;;;;10.40;4.97;;;;;;;;;;5070888;28;20506;-46
2023/09/06 08:45:36;;;;;;;9.82;5.32;;;;;;;;;;5074678;28;20024;-46
2023/09/06 08:48:01;;;;;;;13.05;4.78;;;;;;;;;;5069184;28;20405;-45
2023/09/06 08:50:27;;;;;;;13.60;4.70;;;;;;;;;;5072440;28;20053;-45
2023/09/06 08:52:54;;;;;;;9.25;5.20;;;;;;;;;;5070895;28;20271;-46
2023/09/06 08:55:19;;;;;;;9.80;4.93;;;;;;;;;;5075018;28;20024;-46
2023/09/06 08:57:45;;;;;;;8.68;4.55;;;;;;;;;;5068824;28;20027;-46
2023/09/06 09:00:11;;;;;;;7.15;3.85;;;;;;;;;;5073567;28;20024;-46
2023/09/06 09:02:36;;;;;;;7.32;4.40;;;;;;;;;;5071952;28;20073;-46
2023/09/06 09:05:04;;;;;;;6.80;4.50;;;;;;;;;;5074092;28;20024;-46
2023/09/06 09:07:30;;;;;;;9.52;5.13;;;;;;;;;;5071245;28;20027;-46
2023/09/06 09:09:57;;;;;;;8.90;4.88;;;;;;;;;;5071639;28;20082;-46
2023/09/06 09:12:23;;;;;;;7.30;4.47;;;;;;;;;;5076279;28;20029;-46
2023/09/06 09:14:49;;;;;;;6.85;4.20;;;;;;;;;;5073201;28;20024;-45
2023/09/06 09:17:14;;;;;;;6.10;3.63;;;;;;;;;;5075124;28;20028;-46
2023/09/06 09:19:39;;;;;;;10.13;4.43;;;;;;;;;;5075207;28;20290;-46
2023/09/06 09:22:07;;;;;;;7.03;3.90;;;;;;;;;;5071379;28;20364;-46
2023/09/06 09:24:32;;;;;;;5.78;2.25;;;;;;;;;;5072368;28;20270;-46
2023/09/06 09:26:58;;;;;;;4.60;3.37;;;;;;;;;;5073965;28;20052;-46
2023/09/06 09:29:23;;;;;;;10.05;3.17;;;;;;;;;;5076565;28;20012;-46
2023/09/06 09:31:48;;;;;;;5.95;3.28;;;;;;;;;;5077314;28;20040;-46
2023/09/06 09:34:14;;;;;;;5.23;3.50;;;;;;;;;;5074164;28;20034;-46
2023/09/06 09:36:39;;;;;;;7.00;3.90;;;;;;;;;;5071703;28;20301;-46
2023/09/06 09:39:07;;;;;;;21.80;12.40;;;;;;;;;;5070540;28;20059;-46
2023/09/06 09:41:32;;;;;;;11.73;7.07;;;;;;;;;;5073244;28;20053;-46
2023/09/06 09:44:12;;;;;;;8.73;3.70;;;;;;;;;;5071692;28;20020;-46
2023/09/06 09:46:39;;;;;;;7.25;3.70;;;;;;;;;;5077432;28;20278;-46
2023/09/06 09:49:07;;;;;;;4.88;3.25;;;;;;;;;;5073699;28;20016;-46
2023/09/06 09:51:33;;;;;;;5.75;3.45;;;;;;;;;;5074521;28;20770;-46
2023/09/06 09:53:58;;;;;;;5.13;2.92;;;;;;;;;;5071543;28;20101;-46
2023/09/06 09:56:24;;;;;;;6.38;3.10;;;;;;;;;;5075138;28;20020;-46
2023/09/06 09:58:51;;;;;;;6.75;3.20;;;;;;;;;;5074004;28;20398;-46
2023/09/06 10:01:17;;;;;;;4.32;3.08;;;;;;;;;;5075255;28;20163;-46
2023/09/06 10:03:43;;;;;;;10.43;3.30;;;;;;;;;;5075523;28;20035;-46
2023/09/06 10:06:10;;;;;;;5.38;3.30;;;;;;;;;;5070981;28;20024;-46
2023/09/06 10:08:36;;;;;;;8.45;3.30;;;;;;;;;;5073836;28;20032;-46
2023/09/06 10:11:05;;;;;;;5.95;3.20;;;;;;;;;;5071709;28;20487;-46
2023/09/06 10:13:30;;;;;;;5.13;2.38;;;;;;;;;;5073737;28;20035;-46
2023/09/06 10:15:56;;;;;;;6.63;3.28;;;;;;;;;;5071615;28;20406;-46
2023/09/06 10:18:22;;;;;;;7.65;2.95;;;;;;;;;;5072136;28;20031;-46
2023/09/06 10:20:47;;;;;;;3.27;1.90;;;;;;;;;;5072954;28;20017;-46
2023/09/06 10:23:13;;;;;;;4.68;2.38;;;;;;;;;;5071514;28;20282;-46
2023/09/06 10:25:42;;;;;;;5.35;3.17;;;;;;;;;;5073686;28;20024;-46
2023/09/06 10:28:08;;;;;;;9.73;3.13;;;;;;;;;;5074440;28;20389;-46
2023/09/06 10:30:44;;;;;;;7.30;3.45;;;;;;;;;;5074958;28;20031;-46
2023/09/06 10:33:10;;;;;;;8.60;3.65;;;;;;;;;;5067102;28;20024;-46
2023/09/06 10:35:45;;;;;;;13.05;4.07;;;;;;;;;;5071066;28;20103;-45
2023/09/06 10:38:11;;;;;;;8.50;3.90;;;;;;;;;;5066869;28;20040;-45
2023/09/06 10:40:53;;;;;;;8.63;3.50;;;;;;;;;;5064485;28;20030;-46
2023/09/06 10:43:18;;;;;;;;;;;;;;;;;;5064320;28;20017;-46
2023/09/06 10:45:56;;;;;;;4.88;3.72;;;;;;;;;;5069035;28;19954;-45
2023/09/06 10:48:21;;;;;;;6.45;3.17;;;;;;;;;;5069181;28;20066;-46
2023/09/06 10:51:03;;;;;;;7.82;4.22;;;;;;;;;;5067565;28;20020;-46
2023/09/06 10:53:28;;;;;;;;;;;;;;;;;;5073347;28;20020;-46
2023/09/06 10:55:55;;;;;;;4.80;2.60;;;;;;;;;;5071032;28;19909;-46
2023/09/06 10:58:22;;;;;;;6.32;2.83;;;;;;;;;;5069059;28;20024;-45
2023/09/06 11:01:07;;;;;;;6.43;3.15;;;;;;;;;;5067345;28;20024;-45
2023/09/06 11:03:33;;;;;;;7.20;4.57;;;;;;;;;;5063016;28;20032;-46
2023/09/06 11:05:58;;;;;;;239.40;91.03;;;;;;;;;;5068638;28;20039;-46
2023/09/06 11:08:25;;;;;;;49.58;21.27;;;;;;;;;;5070660;28;20020;-46
2023/09/06 11:10:53;;;;;;;6.53;3.40;;;;;;;;;;5058654;28;20448;-46
2023/09/06 11:13:19;;;;;;;7.97;2.95;;;;;;;;;;5065044;28;20401;-46
2023/09/06 11:15:44;;;;;;;8.15;3.38;;;;;;;;;;5067857;28;20132;-46
2023/09/06 11:18:10;;;;;;;11.23;4.30;;;;;;;;;;5072274;28;20497;-46
2023/09/06 11:20:35;;;;;;;10.82;4.68;;;;;;;;;;5066716;28;20274;-46
2023/09/06 11:23:01;;;;;;;29.60;8.48;;;;;;;;;;5065313;28;20032;-46
2023/09/06 11:25:28;;;;;;;21.83;7.97;;;;;;;;;;5066875;28;20494;-45
2023/09/06 11:27:58;;;;;;;11.02;4.93;;;;;;;;;;5070193;28;20509;-46
2023/09/06 11:30:23;;;;;;;13.85;3.92;;;;;;;;;;5067369;28;20067;-46
2023/09/06 11:32:53;;;;;;;12.80;4.68;;;;;;;;;;5072233;28;20055;-45
2023/09/06 11:35:20;;;;;;;10.70;5.13;;;;;;;;;;5070276;28;20032;-46
2023/09/06 11:37:50;;;;;;;55.70;13.65;;;;;;;;;;5066751;28;20032;-46
2023/09/06 11:40:18;;;;;;;10.93;4.80;;;;;;;;;;5060722;28;20021;-46
2023/09/06 11:42:54;;;;;;;5.90;3.53;;;;;;;;;;5067527;28;20048;-46
2023/09/06 11:45:21;;;;;;;7.93;4.53;;;;;;;;;;5065748;28;20421;-45
2023/09/06 11:47:46;;;;;;;7.82;3.35;;;;;;;;;;5069324;28;20020;-46
2023/09/06 11:50:15;;;;;;;96.43;20.75;;;;;;;;;;5063496;28;20107;-46
2023/09/06 11:52:46;;;;;;;6.25;3.97;;;;;;;;;;5064763;28;20036;-46
2023/09/06 11:55:14;;;;;;;111.53;35.17;;;;;;;;;;5066283;28;20073;-46
2023/09/06 11:57:41;;;;;;;338.00;132.32;;;;;;;;;;5070845;28;20464;-46
2023/09/06 12:00:28;;;;;;;14.43;6.60;;;;;;;;;;5067487;28;20124;-46
2023/09/06 12:03:13;;;;;;;11.82;4.30;;;;;;;;;;5069186;28;20035;-46
2023/09/06 12:05:43;;;;;;;9.98;4.22;;;;;;;;;;5064702;28;20032;-46
2023/09/06 12:08:09;;;;;;;8.45;3.70;;;;;;;;;;5060392;28;20020;-46
2023/09/06 12:10:35;;;;;;;6.75;3.70;;;;;;;;;;5059597;28;20031;-46
2023/09/06 12:13:00;;;;;;;6.22;3.70;;;;;;;;;;5065748;28;20016;-46
2023/09/06 12:15:26;;;;;;;99.18;15.57;;;;;;;;;;5059242;28;20039;-46
2023/09/06 12:17:51;;;;;;;6.72;3.88;;;;;;;;;;5047731;28;20097;-46
2023/09/06 12:20:18;;;;;;;135.77;33.58;;;;;;;;;;5051416;28;20017;-46
2023/09/06 12:22:43;;;;;;;8.73;4.07;;;;;;;;;;5056114;28;20024;-46
2023/09/06 12:25:10;;;;;;;6.35;3.10;;;;;;;;;;5061591;28;20499;-46
2023/09/06 12:27:35;;;;;;;7.43;2.70;;;;;;;;;;5063676;28;20115;-46
2023/09/06 12:30:01;;;;;;;9.50;5.30;;;;;;;;;;5063861;28;20028;-46
2023/09/06 12:32:28;;;;;;;9.63;4.53;;;;;;;;;;5065071;28;20498;-46
2023/09/06 12:34:54;;;;;;;200.30;77.93;;;;;;;;;;5061910;28;20522;-46
2023/09/06 12:37:19;;;;;;;10.03;3.77;;;;;;;;;;5065425;28;20046;-46
2023/09/06 12:39:44;;;;;;;11.97;6.30;;;;;;;;;;5059075;28;20039;-46
2023/09/06 12:42:09;;;;;;;8.15;4.38;;;;;;;;;;5063196;28;20054;-46
2023/09/06 12:44:35;;;;;;;6.23;3.10;;;;;;;;;;5059786;28;20086;-46
2023/09/06 12:47:00;;;;;;;5.53;2.77;;;;;;;;;;5061519;28;20032;-46
2023/09/06 12:49:25;;;;;;;5.90;3.47;;;;;;;;;;5059716;28;20028;-46
2023/09/06 12:51:50;;;;;;;9.57;3.43;;;;;;;;;;5063582;28;20134;-46
2023/09/06 12:54:17;;;;;;;7.20;2.90;;;;;;;;;;5064055;28;20397;-46
2023/09/06 12:56:42;;;;;;;6.50;2.97;;;;;;;;;;5061769;28;20037;-46
2023/09/06 12:59:07;;;;;;;5.18;3.55;;;;;;;;;;5057190;28;20020;-46
2023/09/06 13:01:33;;;;;;;10.13;3.33;;;;;;;;;;5060290;28;20032;-46
2023/09/06 13:03:58;;;;;;;3.27;2.27;;;;;;;;;;5058388;28;20111;-46
2023/09/06 13:06:23;;;;;;;6.68;3.05;;;;;;;;;;5060398;28;20089;-46
2023/09/06 13:08:50;;;;;;;5.00;2.60;;;;;;;;;;5053399;28;20032;-46
2023/09/06 13:11:15;;;;;;;5.40;2.60;;;;;;;;;;5062135;28;20278;-46
2023/09/06 13:13:41;;;;;;;3.83;2.55;;;;;;;;;;5068509;28;20031;-46
2023/09/06 13:16:07;;;;;;;5.90;2.40;;;;;;;;;;5070019;28;20035;-46
2023/09/06 13:18:33;;;;;;;6.03;2.97;;;;;;;;;;5071913;28;20033;-46
2023/09/06 13:20:59;;;;;;;5.32;3.05;;;;;;;;;;5064752;28;20028;-46
2023/09/06 13:23:50;;;;;;;5.15;2.42;;;;;;;;;;5071743;28;20549;-46
2023/09/06 13:26:15;;;;;;;3.50;2.78;;;;;;;;;;5071612;28;20058;-46
2023/09/06 13:28:42;;;;;;;5.87;3.00;;;;;;;;;;5069936;28;20036;-46
2023/09/06 13:31:07;;;;;;;459.70;138.27;;;;;;;;;;5069425;28;20282;-46
2023/09/06 13:33:33;;;;;;;6.57;4.43;;;;;;;;;;5077151;28;20033;-46
2023/09/06 13:35:59;;;;;;;7.40;2.58;;;;;;;;;;5075215;28;20024;-46
2023/09/06 13:38:24;;;;;;;5.65;2.47;;;;;;;;;;5071755;28;20074;-46
2023/09/06 13:40:49;;;;;;;5.57;2.77;;;;;;;;;;5073099;28;20111;-46
2023/09/06 13:43:14;;;;;;;8.93;3.53;;;;;;;;;;5070180;28;20028;-46
2023/09/06 13:45:40;;;;;;;7.10;3.57;;;;;;;;;;5072627;28;20035;-46
2023/09/06 13:48:05;;;;;;;6.80;3.50;;;;;;;;;;5070851;28;20356;-46
2023/09/06 13:50:30;;;;;;;6.55;3.90;;;;;;;;;;5068991;28;20434;-46
2023/09/06 13:52:56;;;;;;;6.87;4.00;;;;;;;;;;5075555;28;20036;-46
2023/09/06 13:55:21;;;;;;;8.17;3.90;;;;;;;;;;5071564;28;20584;-46
2023/09/06 13:57:46;;;;;;;5.63;3.03;;;;;;;;;;5071966;28;20321;-46
2023/09/06 14:00:12;;;;;;;4.63;2.97;;;;;;;;;;5073303;28;20451;-46
2023/09/06 14:02:37;;;;;;;8.25;2.88;;;;;;;;;;5067818;28;20024;-46
2023/09/06 14:05:03;;;;;;;203.40;51.13;;;;;;;;;;5070712;28;20028;-46
2023/09/06 14:07:29;;;;;;;4.13;2.30;;;;;;;;;;5073502;28;20028;-46
2023/09/06 14:09:54;;;;;;;4.22;2.53;;;;;;;;;;5068561;28;20028;-46
2023/09/06 14:12:19;;;;;;;13.25;7.18;;;;;;;;;;5069774;28;20020;-46
2023/09/06 14:14:45;;;;;;;13.60;9.73;;;;;;;;;;5072222;28;20024;-46
2023/09/06 14:17:10;;;;;;;5.67;3.43;;;;;;;;;;5070950;28;20021;-46
2023/09/06 14:19:35;;;;;;;7.40;4.53;;;;;;;;;;5072522;28;20567;-46
2023/09/06 14:22:00;;;;;;;25.03;14.63;;;;;;;;;;5071621;28;20036;-46
2023/09/06 14:24:26;;;;;;;8.77;5.43;;;;;;;;;;5066463;28;20707;-46
2023/09/06 14:26:51;;;;;;;6.67;3.57;;;;;;;;;;5063871;28;20020;-46
2023/09/06 14:29:16;;;;;;;4.80;2.83;;;;;;;;;;5066872;28;20282;-46
2023/09/06 14:31:42;;;;;;;7.05;3.42;;;;;;;;;;5069004;28;20542;-46
2023/09/06 14:34:07;;;;;;;5.78;2.17;;;;;;;;;;5066299;28;20024;-46
2023/09/06 14:36:33;;;;;;;5.95;2.45;;;;;;;;;;5066254;28;20039;-46
2023/09/06 14:38:58;;;;;;;4.13;2.47;;;;;;;;;;5065677;28;20032;-46